sensor_id;sensor_type;location;lat;lon;timestamp;pressure;altitude;pressure_sealevel;temperature;humidity
10824;BME280;39116;59.332;18.034;2023-04-04T00:00:05;102510.88;;;0.46;100.00
10824;BME280;39116;59.332;18.034;2023-04-04T00:02:27;102380.97;;;-0.55;100.00
10824;BME280;39116;59.332;18.034;2023-04-04T00:04:51;102510.88;;;0.46;100.00
10824;BME280;39116;59.332;18.034;2023-04-04T00:07:13;102511.94;;;0.37;100.00
10824;BME280;39116;59.332;18.034;2023-04-04T00:09:35;102505.22;;;0.28;100.00
10824;BME280;39116;59.332;18.034;2023-04-04T00:11:57;102511.94;;;0.37;100.00
10824;BME280;39116;59.332;18.034;2023-04-04T00:14:19;102508.63;;;0.38;100.00
10824;BME280;39116;59.332;18.034;2023-04-04T00:16:41;102504.75;;;0.22;100.00
10824;BME280;39116;59.332;18.034;2023-04-04T00:19:03;102501.78;;;0.27;100.00
10824;BME280;39116;59.332;18.034;2023-04-04T00:21:26;102385.94;;;-0.25;100.00
10824;BME280;39116;59.332;18.034;2023-04-04T00:23:49;102447.91;;;0.15;100.00
10824;BME280;39116;59.332;18.034;2023-04-04T00:26:13;102492.34;;;0.38;100.00
10824;BME280;39116;59.332;18.034;2023-04-04T00:28:36;102492.00;;;0.33;100.00
10824;BME280;39116;59.332;18.034;2023-04-04T00:30:59;102480.72;;;0.31;100.00
10824;BME280;39116;59.332;18.034;2023-04-04T00:33:21;102485.59;;;0.28;100.00
10824;BME280;39116;59.332;18.034;2023-04-04T00:35:43;102482.72;;;0.24;100.00
10824;BME280;39116;59.332;18.034;2023-04-04T00:38:07;102480.28;;;0.25;100.00
10824;BME280;39116;59.332;18.034;2023-04-04T00:40:29;102473.34;;;0.24;100.00
10824;BME280;39116;59.332;18.034;2023-04-04T00:42:51;102471.78;;;0.26;100.00
10824;BME280;39116;59.332;18.034;2023-04-04T00:45:14;102475.91;;;0.24;100.00
10824;BME280;39116;59.332;18.034;2023-04-04T00:47:36;102475.16;;;0.25;100.00
10824;BME280;39116;59.332;18.034;2023-04-04T00:49:59;102468.16;;;0.12;100.00
10824;BME280;39116;59.332;18.034;2023-04-04T00:52:21;102465.53;;;0.23;100.00
10824;BME280;39116;59.332;18.034;2023-04-04T00:54:44;102467.22;;;0.22;100.00
10824;BME280;39116;59.332;18.034;2023-04-04T00:57:07;102471.09;;;0.17;100.00
10824;BME280;39116;59.332;18.034;2023-04-04T00:59:30;102462.13;;;0.12;100.00
10824;BME280;39116;59.332;18.034;2023-04-04T01:01:52;102462.63;;;0.18;100.00
10824;BME280;39116;59.332;18.034;2023-04-04T01:04:15;102439.38;;;0.05;100.00
10824;BME280;39116;59.332;18.034;2023-04-04T01:06:37;102452.28;;;0.16;100.00
10824;BME280;39116;59.332;18.034;2023-04-04T01:08:59;102451.44;;;0.06;100.00
10824;BME280;39116;59.332;18.034;2023-04-04T01:11:22;102444.75;;;0.08;100.00
10824;BME280;39116;59.332;18.034;2023-04-04T01:13:45;102443.50;;;0.03;100.00
10824;BME280;39116;59.332;18.034;2023-04-04T01:16:08;102455.09;;;-0.13;100.00
10824;BME280;39116;59.332;18.034;2023-04-04T01:18:31;102446.06;;;0.03;100.00
10824;BME280;39116;59.332;18.034;2023-04-04T01:20:56;102436.28;;;0.09;100.00
10824;BME280;39116;59.332;18.034;2023-04-04T01:23:23;102440.19;;;0.04;100.00
10824;BME280;39116;59.332;18.034;2023-04-04T01:25:47;102441.06;;;0.04;100.00
10824;BME280;39116;59.332;18.034;2023-04-04T01:28:09;102434.78;;;-0.22;100.00
10824;BME280;39116;59.332;18.034;2023-04-04T01:30:34;102442.00;;;-0.06;100.00
10824;BME280;39116;59.332;18.034;2023-04-04T01:33:00;102444.84;;;-0.13;100.00
10824;BME280;39116;59.332;18.034;2023-04-04T01:35:29;102437.53;;;-0.08;100.00
10824;BME280;39116;59.332;18.034;2023-04-04T01:38:00;102439.69;;;-0.03;100.00
10824;BME280;39116;59.332;18.034;2023-04-04T01:40:31;102416.19;;;-0.09;100.00
10824;BME280;39116;59.332;18.034;2023-04-04T01:42:56;102449.38;;;0.02;100.00
10824;BME280;39116;59.332;18.034;2023-04-04T01:45:20;102443.53;;;-0.08;100.00
10824;BME280;39116;59.332;18.034;2023-04-04T01:47:43;102449.34;;;-0.10;100.00
10824;BME280;39116;59.332;18.034;2023-04-04T01:50:07;102448.41;;;-0.11;100.00
10824;BME280;39116;59.332;18.034;2023-04-04T01:52:29;102438.00;;;-0.24;100.00
10824;BME280;39116;59.332;18.034;2023-04-04T01:54:51;102447.22;;;-0.26;100.00
10824;BME280;39116;59.332;18.034;2023-04-04T01:57:13;102443.88;;;-0.25;100.00
10824;BME280;39116;59.332;18.034;2023-04-04T01:59:36;102449.91;;;-0.25;100.00
10824;BME280;39116;59.332;18.034;2023-04-04T02:01:58;102428.06;;;-0.31;100.00
10824;BME280;39116;59.332;18.034;2023-04-04T02:04:20;102428.66;;;-0.24;100.00
10824;BME280;39116;59.332;18.034;2023-04-04T02:06:42;102424.94;;;-0.27;100.00
10824;BME280;39116;59.332;18.034;2023-04-04T02:09:04;102420.09;;;-0.24;100.00
10824;BME280;39116;59.332;18.034;2023-04-04T02:11:26;102427.50;;;-0.27;100.00
10824;BME280;39116;59.332;18.034;2023-04-04T02:13:48;102405.19;;;-0.40;100.00
10824;BME280;39116;59.332;18.034;2023-04-04T02:16:12;102421.63;;;-0.26;100.00
10824;BME280;39116;59.332;18.034;2023-04-04T02:18:35;102430.06;;;-0.27;100.00
10824;BME280;39116;59.332;18.034;2023-04-04T02:20:57;102418.84;;;-0.40;100.00
10824;BME280;39116;59.332;18.034;2023-04-04T02:23:19;102427.28;;;-0.30;100.00
10824;BME280;39116;59.332;18.034;2023-04-04T02:25:41;102426.78;;;-0.36;100.00
10824;BME280;39116;59.332;18.034;2023-04-04T02:28:03;102427.31;;;-0.41;100.00
10824;BME280;39116;59.332;18.034;2023-04-04T02:30:25;102425.78;;;-0.39;100.00
10824;BME280;39116;59.332;18.034;2023-04-04T02:32:48;102417.09;;;-0.41;100.00
10824;BME280;39116;59.332;18.034;2023-04-04T02:35:10;102414.31;;;-0.54;100.00
10824;BME280;39116;59.332;18.034;2023-04-04T02:37:32;102411.13;;;-0.51;100.00
10824;BME280;39116;59.332;18.034;2023-04-04T02:39:54;102267.47;;;-1.32;100.00
10824;BME280;39116;59.332;18.034;2023-04-04T02:42:16;102412.28;;;-0.58;100.00
10824;BME280;39116;59.332;18.034;2023-04-04T02:44:38;102420.25;;;-0.65;100.00
10824;BME280;39116;59.332;18.034;2023-04-04T02:47:00;102415.78;;;-0.68;100.00
10824;BME280;39116;59.332;18.034;2023-04-04T02:49:23;102413.81;;;-0.50;100.00
10824;BME280;39116;59.332;18.034;2023-04-04T02:51:45;102414.72;;;-0.60;100.00
10824;BME280;39116;59.332;18.034;2023-04-04T02:54:07;102415.63;;;-0.59;100.00
10824;BME280;39116;59.332;18.034;2023-04-04T02:56:29;102396.97;;;-0.68;100.00
10824;BME280;39116;59.332;18.034;2023-04-04T02:58:51;102414.13;;;-0.78;100.00
10824;BME280;39116;59.332;18.034;2023-04-04T03:01:13;102410.16;;;-0.74;100.00
10824;BME280;39116;59.332;18.034;2023-04-04T03:03:35;102414.25;;;-0.66;100.00
10824;BME280;39116;59.332;18.034;2023-04-04T03:05:58;102419.19;;;-0.57;100.00
10824;BME280;39116;59.332;18.034;2023-04-04T03:08:21;102413.56;;;-0.63;100.00
10824;BME280;39116;59.332;18.034;2023-04-04T03:10:43;102410.25;;;-0.62;100.00
10824;BME280;39116;59.332;18.034;2023-04-04T03:13:06;102415.13;;;-0.65;100.00
10824;BME280;39116;59.332;18.034;2023-04-04T03:15:28;102411.97;;;-0.73;100.00
10824;BME280;39116;59.332;18.034;2023-04-04T03:17:50;102410.03;;;-0.75;100.00
10824;BME280;39116;59.332;18.034;2023-04-04T03:20:12;102414.88;;;-0.68;100.00
10824;BME280;39116;59.332;18.034;2023-04-04T03:22:35;102408.34;;;-1.07;100.00
10824;BME280;39116;59.332;18.034;2023-04-04T03:24:57;102381.00;;;-1.29;100.00
10824;BME280;39116;59.332;18.034;2023-04-04T03:27:19;102398.00;;;-1.40;100.00
10824;BME280;39116;59.332;18.034;2023-04-04T03:29:41;102398.72;;;-1.10;100.00
10824;BME280;39116;59.332;18.034;2023-04-04T03:32:04;102400.34;;;-0.90;100.00
10824;BME280;39116;59.332;18.034;2023-04-04T03:34:26;102400.47;;;-0.88;100.00
10824;BME280;39116;59.332;18.034;2023-04-04T03:36:48;102394.75;;;-0.96;100.00
10824;BME280;39116;59.332;18.034;2023-04-04T03:39:12;102386.28;;;-0.85;100.00
10824;BME280;39116;59.332;18.034;2023-04-04T03:41:34;102390.13;;;-0.90;100.00
10824;BME280;39116;59.332;18.034;2023-04-04T03:43:56;102397.63;;;-1.24;100.00
10824;BME280;39116;59.332;18.034;2023-04-04T03:46:18;102392.38;;;-1.46;100.00
10824;BME280;39116;59.332;18.034;2023-04-04T03:48:40;102387.91;;;-1.59;100.00
10824;BME280;39116;59.332;18.034;2023-04-04T03:51:03;102390.44;;;-1.18;100.00
10824;BME280;39116;59.332;18.034;2023-04-04T03:53:25;102385.88;;;-1.52;100.00
10824;BME280;39116;59.332;18.034;2023-04-04T03:55:49;102380.50;;;-1.14;100.00
10824;BME280;39116;59.332;18.034;2023-04-04T03:58:11;102372.97;;;-1.33;100.00
10824;BME280;39116;59.332;18.034;2023-04-04T04:00:33;102376.13;;;-1.26;100.00
10824;BME280;39116;59.332;18.034;2023-04-04T04:02:55;102375.03;;;-1.50;100.00
10824;BME280;39116;59.332;18.034;2023-04-04T04:05:17;102372.47;;;-1.50;100.00
10824;BME280;39116;59.332;18.034;2023-04-04T04:07:42;102380.50;;;-1.66;100.00
10824;BME280;39116;59.332;18.034;2023-04-04T04:10:04;102385.69;;;-2.05;100.00
10824;BME280;39116;59.332;18.034;2023-04-04T04:12:28;102376.38;;;-2.05;100.00
10824;BME280;39116;59.332;18.034;2023-04-04T04:14:50;102366.44;;;-1.81;100.00
10824;BME280;39116;59.332;18.034;2023-04-04T04:17:12;102242.38;;;-2.41;100.00
10824;BME280;39116;59.332;18.034;2023-04-04T04:19:33;102370.78;;;-1.49;100.00
10824;BME280;39116;59.332;18.034;2023-04-04T04:21:55;102359.56;;;-1.62;100.00
10824;BME280;39116;59.332;18.034;2023-04-04T04:24:17;102354.84;;;-1.47;100.00
10824;BME280;39116;59.332;18.034;2023-04-04T04:26:39;102351.28;;;-1.49;100.00
10824;BME280;39116;59.332;18.034;2023-04-04T04:29:03;102358.25;;;-1.16;100.00
10824;BME280;39116;59.332;18.034;2023-04-04T04:31:25;102365.16;;;-1.14;100.00
10824;BME280;39116;59.332;18.034;2023-04-04T04:33:47;102359.44;;;-0.90;100.00
10824;BME280;39116;59.332;18.034;2023-04-04T04:36:09;102356.72;;;-0.81;100.00
10824;BME280;39116;59.332;18.034;2023-04-04T04:38:31;102358.50;;;-0.70;100.00
10824;BME280;39116;59.332;18.034;2023-04-04T04:40:53;102355.53;;;-0.64;100.00
10824;BME280;39116;59.332;18.034;2023-04-04T04:43:14;102354.88;;;-0.62;100.00
10824;BME280;39116;59.332;18.034;2023-04-04T04:45:40;102349.34;;;-0.56;100.00
10824;BME280;39116;59.332;18.034;2023-04-04T04:48:02;102333.88;;;-0.58;100.00
10824;BME280;39116;59.332;18.034;2023-04-04T04:50:24;102329.72;;;-0.67;100.00
10824;BME280;39116;59.332;18.034;2023-04-04T04:52:46;102348.47;;;-0.56;100.00
10824;BME280;39116;59.332;18.034;2023-04-04T04:55:10;102339.91;;;-0.35;100.00
10824;BME280;39116;59.332;18.034;2023-04-04T04:57:32;102349.38;;;-0.12;100.00
10824;BME280;39116;59.332;18.034;2023-04-04T04:59:54;102354.66;;;0.02;100.00
10824;BME280;39116;59.332;18.034;2023-04-04T05:02:17;102351.25;;;0.13;100.00
10824;BME280;39116;59.332;18.034;2023-04-04T05:04:39;102344.34;;;0.12;100.00
10824;BME280;39116;59.332;18.034;2023-04-04T05:07:04;102353.28;;;0.17;100.00
10824;BME280;39116;59.332;18.034;2023-04-04T05:09:27;102347.91;;;0.14;100.00
10824;BME280;39116;59.332;18.034;2023-04-04T05:11:49;102335.84;;;0.01;100.00
10824;BME280;39116;59.332;18.034;2023-04-04T05:14:11;102354.16;;;0.17;100.00
10824;BME280;39116;59.332;18.034;2023-04-04T05:16:33;102347.84;;;0.24;100.00
10824;BME280;39116;59.332;18.034;2023-04-04T05:18:57;102350.00;;;0.42;100.00
10824;BME280;39116;59.332;18.034;2023-04-04T05:21:19;102353.09;;;0.37;100.00
10824;BME280;39116;59.332;18.034;2023-04-04T05:23:41;102342.88;;;0.49;100.00
10824;BME280;39116;59.332;18.034;2023-04-04T05:26:04;102358.03;;;0.46;100.00
10824;BME280;39116;59.332;18.034;2023-04-04T05:28:26;102353.66;;;0.33;100.00
10824;BME280;39116;59.332;18.034;2023-04-04T05:30:48;102357.34;;;0.03;100.00
10824;BME280;39116;59.332;18.034;2023-04-04T05:33:10;102321.75;;;-0.60;100.00
10824;BME280;39116;59.332;18.034;2023-04-04T05:35:34;102346.69;;;-0.13;100.00
10824;BME280;39116;59.332;18.034;2023-04-04T05:37:56;102352.00;;;-0.22;100.00
10824;BME280;39116;59.332;18.034;2023-04-04T05:40:18;102349.84;;;-0.06;100.00
10824;BME280;39116;59.332;18.034;2023-04-04T05:42:40;102351.88;;;-0.02;100.00
10824;BME280;39116;59.332;18.034;2023-04-04T05:45:02;102348.22;;;0.41;100.00
10824;BME280;39116;59.332;18.034;2023-04-04T05:47:24;102350.22;;;0.33;100.00
10824;BME280;39116;59.332;18.034;2023-04-04T05:49:46;102338.84;;;0.29;100.00
10824;BME280;39116;59.332;18.034;2023-04-04T05:52:09;102333.03;;;0.20;100.00
10824;BME280;39116;59.332;18.034;2023-04-04T05:54:31;102347.88;;;0.36;100.00
10824;BME280;39116;59.332;18.034;2023-04-04T05:56:53;102332.09;;;0.19;100.00
10824;BME280;39116;59.332;18.034;2023-04-04T05:59:15;102339.97;;;0.45;100.00
10824;BME280;39116;59.332;18.034;2023-04-04T06:01:38;102346.00;;;0.45;100.00
10824;BME280;39116;59.332;18.034;2023-04-04T06:04:00;102342.66;;;0.46;100.00
10824;BME280;39116;59.332;18.034;2023-04-04T06:06:22;102342.03;;;0.84;100.00
10824;BME280;39116;59.332;18.034;2023-04-04T06:08:46;102332.00;;;0.87;100.00
10824;BME280;39116;59.332;18.034;2023-04-04T06:11:08;102194.66;;;-0.04;100.00
10824;BME280;39116;59.332;18.034;2023-04-04T06:13:30;102329.19;;;0.84;100.00
10824;BME280;39116;59.332;18.034;2023-04-04T06:15:52;102335.78;;;0.81;100.00
10824;BME280;39116;59.332;18.034;2023-04-04T06:18:14;102339.38;;;1.06;100.00
10824;BME280;39116;59.332;18.034;2023-04-04T06:20:36;102339.47;;;0.72;100.00
10824;BME280;39116;59.332;18.034;2023-04-04T06:22:58;102206.31;;;0.15;100.00
10824;BME280;39116;59.332;18.034;2023-04-04T06:25:25;102341.59;;;1.13;100.00
10824;BME280;39116;59.332;18.034;2023-04-04T06:27:47;102335.78;;;1.16;100.00
10824;BME280;39116;59.332;18.034;2023-04-04T06:30:10;102344.59;;;1.20;100.00
10824;BME280;39116;59.332;18.034;2023-04-04T06:32:33;102335.97;;;1.31;100.00
10824;BME280;39116;59.332;18.034;2023-04-04T06:34:55;102338.00;;;1.35;100.00
10824;BME280;39116;59.332;18.034;2023-04-04T06:37:17;102329.50;;;1.36;100.00
10824;BME280;39116;59.332;18.034;2023-04-04T06:39:39;102334.31;;;1.68;100.00
10824;BME280;39116;59.332;18.034;2023-04-04T06:42:03;102327.19;;;1.76;100.00
10824;BME280;39116;59.332;18.034;2023-04-04T06:44:24;102332.31;;;1.76;100.00
10824;BME280;39116;59.332;18.034;2023-04-04T06:46:46;102340.50;;;1.96;100.00
10824;BME280;39116;59.332;18.034;2023-04-04T06:49:08;102348.50;;;2.00;100.00
10824;BME280;39116;59.332;18.034;2023-04-04T06:51:32;102336.09;;;1.44;100.00
10824;BME280;39116;59.332;18.034;2023-04-04T06:53:55;102341.59;;;1.13;100.00
10824;BME280;39116;59.332;18.034;2023-04-04T06:56:17;102332.09;;;1.73;100.00
10824;BME280;39116;59.332;18.034;2023-04-04T06:58:40;102333.22;;;1.65;100.00
10824;BME280;39116;59.332;18.034;2023-04-04T07:01:02;102259.81;;;1.18;100.00
10824;BME280;39116;59.332;18.034;2023-04-04T07:03:24;102331.97;;;1.83;100.00
10824;BME280;39116;59.332;18.034;2023-04-04T07:05:46;102324.94;;;1.20;100.00
10824;BME280;39116;59.332;18.034;2023-04-04T07:08:08;102334.25;;;0.83;100.00
10824;BME280;39116;59.332;18.034;2023-04-04T07:10:30;102327.44;;;0.83;100.00
10824;BME280;39116;59.332;18.034;2023-04-04T07:12:52;102336.47;;;0.90;100.00
10824;BME280;39116;59.332;18.034;2023-04-04T07:15:15;102286.06;;;0.79;100.00
10824;BME280;39116;59.332;18.034;2023-04-04T07:17:38;102332.72;;;1.45;100.00
10824;BME280;39116;59.332;18.034;2023-04-04T07:20:00;102336.09;;;1.81;100.00
10824;BME280;39116;59.332;18.034;2023-04-04T07:22:22;102344.59;;;1.68;100.00
10824;BME280;39116;59.332;18.034;2023-04-04T07:24:44;102338.06;;;1.48;100.00
10824;BME280;39116;59.332;18.034;2023-04-04T07:27:07;102323.94;;;1.30;100.00
10824;BME280;39116;59.332;18.034;2023-04-04T07:29:29;102326.38;;;1.40;100.00
10824;BME280;39116;59.332;18.034;2023-04-04T07:31:53;102343.59;;;1.18;100.00
10824;BME280;39116;59.332;18.034;2023-04-04T07:34:15;102335.78;;;1.28;100.00
10824;BME280;39116;59.332;18.034;2023-04-04T07:36:37;102337.00;;;1.09;100.00
10824;BME280;39116;59.332;18.034;2023-04-04T07:38:59;102348.16;;;0.74;100.00
10824;BME280;39116;59.332;18.034;2023-04-04T07:41:21;102329.78;;;1.16;100.00
10824;BME280;39116;59.332;18.034;2023-04-04T07:43:43;102333.09;;;1.26;100.00
10824;BME280;39116;59.332;18.034;2023-04-04T07:46:05;102324.28;;;1.23;100.00
10824;BME280;39116;59.332;18.034;2023-04-04T07:48:28;102319.97;;;0.98;100.00
10824;BME280;39116;59.332;18.034;2023-04-04T07:50:50;102340.13;;;1.17;100.00
10824;BME280;39116;59.332;18.034;2023-04-04T07:53:12;102335.56;;;1.01;100.00
10824;BME280;39116;59.332;18.034;2023-04-04T07:55:34;102343.38;;;0.91;100.00
10824;BME280;39116;59.332;18.034;2023-04-04T07:57:56;102337.22;;;1.73;100.00
10824;BME280;39116;59.332;18.034;2023-04-04T08:00:20;102333.94;;;1.87;100.00
10824;BME280;39116;59.332;18.034;2023-04-04T08:02:42;102293.56;;;1.85;100.00
10824;BME280;39116;59.332;18.034;2023-04-04T08:05:07;102335.00;;;1.78;100.00
10824;BME280;39116;59.332;18.034;2023-04-04T08:07:29;102336.09;;;2.32;100.00
10824;BME280;39116;59.332;18.034;2023-04-04T08:09:51;102336.66;;;2.27;100.00
10824;BME280;39116;59.332;18.034;2023-04-04T08:12:13;102329.22;;;2.71;100.00
10824;BME280;39116;59.332;18.034;2023-04-04T08:14:35;102345.06;;;2.90;100.00
10824;BME280;39116;59.332;18.034;2023-04-04T08:16:57;102337.22;;;3.15;100.00
10824;BME280;39116;59.332;18.034;2023-04-04T08:19:19;102347.03;;;3.08;100.00
10824;BME280;39116;59.332;18.034;2023-04-04T08:21:42;102333.59;;;3.25;100.00
10824;BME280;39116;59.332;18.034;2023-04-04T08:24:05;102342.28;;;3.27;100.00
10824;BME280;39116;59.332;18.034;2023-04-04T08:26:27;102349.22;;;3.01;100.00
10824;BME280;39116;59.332;18.034;2023-04-04T08:28:50;102341.78;;;3.33;100.00
10824;BME280;39116;59.332;18.034;2023-04-04T08:31:12;102344.22;;;3.44;100.00
10824;BME280;39116;59.332;18.034;2023-04-04T08:33:33;102351.09;;;3.72;100.00
10824;BME280;39116;59.332;18.034;2023-04-04T08:35:55;102353.22;;;3.65;100.00
10824;BME280;39116;59.332;18.034;2023-04-04T08:38:19;102348.00;;;3.23;100.00
10824;BME280;39116;59.332;18.034;2023-04-04T08:40:45;102351.16;;;3.59;100.00
10824;BME280;39116;59.332;18.034;2023-04-04T08:43:07;102348.22;;;3.81;100.00
10824;BME280;39116;59.332;18.034;2023-04-04T08:45:31;102349.66;;;3.62;100.00
10824;BME280;39116;59.332;18.034;2023-04-04T08:47:55;102341.22;;;3.65;100.00
10824;BME280;39116;59.332;18.034;2023-04-04T08:50:19;102354.34;;;3.01;100.00
10824;BME280;39116;59.332;18.034;2023-04-04T08:52:42;102342.28;;;3.27;100.00
10824;BME280;39116;59.332;18.034;2023-04-04T08:55:07;102337.31;;;3.30;100.00
10824;BME280;39116;59.332;18.034;2023-04-04T08:57:29;102339.53;;;2.84;100.00
10824;BME280;39116;59.332;18.034;2023-04-04T08:59:52;102335.19;;;3.51;100.00
10824;BME280;39116;59.332;18.034;2023-04-04T09:02:20;102334.06;;;3.74;95.79
10824;BME280;39116;59.332;18.034;2023-04-04T09:04:45;102222.25;;;3.14;95.11
10824;BME280;39116;59.332;18.034;2023-04-04T09:07:08;102329.75;;;3.60;93.24
10824;BME280;39116;59.332;18.034;2023-04-04T09:09:32;102328.47;;;3.81;91.98
10824;BME280;39116;59.332;18.034;2023-04-04T09:11:55;102333.66;;;3.96;90.59
10824;BME280;39116;59.332;18.034;2023-04-04T09:14:20;102317.84;;;3.62;85.99
10824;BME280;39116;59.332;18.034;2023-04-04T09:16:42;102336.88;;;3.92;83.04
10824;BME280;39116;59.332;18.034;2023-04-04T09:19:04;102340.19;;;3.76;80.00
10824;BME280;39116;59.332;18.034;2023-04-04T09:21:25;102337.59;;;3.76;80.05
10824;BME280;39116;59.332;18.034;2023-04-04T09:23:57;102323.50;;;3.70;81.96
10824;BME280;39116;59.332;18.034;2023-04-04T09:26:19;102314.19;;;3.58;82.72
10824;BME280;39116;59.332;18.034;2023-04-04T09:28:51;102320.00;;;3.28;80.57
10824;BME280;39116;59.332;18.034;2023-04-04T09:31:13;102325.19;;;3.56;76.38
10824;BME280;39116;59.332;18.034;2023-04-04T09:33:37;102320.00;;;3.97;73.17
10824;BME280;39116;59.332;18.034;2023-04-04T09:36:01;102322.28;;;3.36;73.58
10824;BME280;39116;59.332;18.034;2023-04-04T09:38:24;102312.19;;;3.39;71.89
10824;BME280;39116;59.332;18.034;2023-04-04T09:40:47;102331.19;;;3.01;69.17
10824;BME280;39116;59.332;18.034;2023-04-04T09:43:11;102323.66;;;3.31;65.69
10824;BME280;39116;59.332;18.034;2023-04-04T09:45:35;102330.41;;;3.29;58.26
10824;BME280;39116;59.332;18.034;2023-04-04T09:47:59;102328.13;;;3.75;60.57
10824;BME280;39116;59.332;18.034;2023-04-04T09:50:22;102329.16;;;4.07;61.64
10824;BME280;39116;59.332;18.034;2023-04-04T09:52:47;102336.22;;;4.39;60.95
10824;BME280;39116;59.332;18.034;2023-04-04T09:55:09;102331.59;;;4.34;59.83
10824;BME280;39116;59.332;18.034;2023-04-04T09:57:33;102319.91;;;3.68;55.94
10824;BME280;39116;59.332;18.034;2023-04-04T09:59:57;102315.97;;;4.31;57.16
10824;BME280;39116;59.332;18.034;2023-04-04T10:02:21;102319.88;;;4.54;55.23
10824;BME280;39116;59.332;18.034;2023-04-04T10:04:43;102315.38;;;3.92;56.18
10824;BME280;39116;59.332;18.034;2023-04-04T10:07:05;102308.88;;;4.42;53.47
10824;BME280;39116;59.332;18.034;2023-04-04T10:09:35;102303.13;;;4.92;54.26
10824;BME280;39116;59.332;18.034;2023-04-04T10:12:07;102277.34;;;4.77;53.04
10824;BME280;39116;59.332;18.034;2023-04-04T10:14:33;102309.72;;;4.72;51.19
10824;BME280;39116;59.332;18.034;2023-04-04T10:16:56;102326.63;;;4.52;52.43
10824;BME280;39116;59.332;18.034;2023-04-04T10:19:19;102300.47;;;4.90;51.46
10824;BME280;39116;59.332;18.034;2023-04-04T10:21:42;102319.88;;;5.46;53.23
10824;BME280;39116;59.332;18.034;2023-04-04T10:24:05;102309.16;;;5.39;53.58
10824;BME280;39116;59.332;18.034;2023-04-04T10:26:29;102309.28;;;5.42;52.85
10824;BME280;39116;59.332;18.034;2023-04-04T10:28:51;102313.97;;;5.32;51.25
10824;BME280;39116;59.332;18.034;2023-04-04T10:31:21;102321.03;;;5.51;50.52
10824;BME280;39116;59.332;18.034;2023-04-04T10:33:48;102312.81;;;5.75;52.38
10824;BME280;39116;59.332;18.034;2023-04-04T10:36:13;102310.03;;;5.55;52.21
10824;BME280;39116;59.332;18.034;2023-04-04T10:38:41;102309.34;;;5.58;50.47
10824;BME280;39116;59.332;18.034;2023-04-04T10:41:04;102306.75;;;5.58;51.65
10824;BME280;39116;59.332;18.034;2023-04-04T10:43:31;102295.28;;;6.02;52.58
10824;BME280;39116;59.332;18.034;2023-04-04T10:45:58;102309.09;;;6.03;51.73
10824;BME280;39116;59.332;18.034;2023-04-04T10:48:23;102294.78;;;5.44;51.06
10824;BME280;39116;59.332;18.034;2023-04-04T10:50:46;102301.41;;;5.39;51.66
10824;BME280;39116;59.332;18.034;2023-04-04T10:53:10;102311.38;;;5.97;50.52
10824;BME280;39116;59.332;18.034;2023-04-04T10:55:32;102297.88;;;6.02;49.57
10824;BME280;39116;59.332;18.034;2023-04-04T10:57:55;102287.06;;;5.77;49.46
10824;BME280;39116;59.332;18.034;2023-04-04T11:00:18;102298.75;;;6.03;49.24
10824;BME280;39116;59.332;18.034;2023-04-04T11:02:44;102282.88;;;6.29;48.60
10824;BME280;39116;59.332;18.034;2023-04-04T11:05:09;102275.97;;;6.46;49.67
10824;BME280;39116;59.332;18.034;2023-04-04T11:07:32;102282.69;;;6.43;47.88
10824;BME280;39116;59.332;18.034;2023-04-04T11:10:00;102276.06;;;6.31;48.50
10824;BME280;39116;59.332;18.034;2023-04-04T11:12:27;102278.47;;;6.45;47.69
10824;BME280;39116;59.332;18.034;2023-04-04T11:14:57;102274.19;;;6.45;46.61
10824;BME280;39116;59.332;18.034;2023-04-04T11:17:57;102275.75;;;6.07;48.07
10824;BME280;39116;59.332;18.034;2023-04-04T11:20:20;102242.47;;;5.97;47.63
10824;BME280;39116;59.332;18.034;2023-04-04T11:22:43;102276.47;;;6.39;48.63
10824;BME280;39116;59.332;18.034;2023-04-04T11:25:31;102266.78;;;6.35;47.31
10824;BME280;39116;59.332;18.034;2023-04-04T11:27:53;102268.28;;;6.30;48.23
10824;BME280;39116;59.332;18.034;2023-04-04T11:30:15;102262.59;;;6.21;48.42
10824;BME280;39116;59.332;18.034;2023-04-04T11:32:47;102256.69;;;6.58;46.85
10824;BME280;39116;59.332;18.034;2023-04-04T11:35:09;102262.44;;;6.34;47.40
10824;BME280;39116;59.332;18.034;2023-04-04T11:37:31;102265.56;;;6.81;48.47
10824;BME280;39116;59.332;18.034;2023-04-04T11:39:54;102258.09;;;6.69;48.29
10824;BME280;39116;59.332;18.034;2023-04-04T11:42:20;102264.31;;;6.20;46.91
10824;BME280;39116;59.332;18.034;2023-04-04T11:45:00;102260.41;;;6.10;47.06
10824;BME280;39116;59.332;18.034;2023-04-04T11:47:23;102247.25;;;5.57;49.07
10824;BME280;39116;59.332;18.034;2023-04-04T11:49:45;102262.56;;;5.86;48.02
10824;BME280;39116;59.332;18.034;2023-04-04T11:52:10;102249.84;;;6.24;48.65
10824;BME280;39116;59.332;18.034;2023-04-04T11:54:32;102254.97;;;6.58;48.36
10824;BME280;39116;59.332;18.034;2023-04-04T11:56:54;102250.06;;;6.10;46.90
10824;BME280;39116;59.332;18.034;2023-04-04T11:59:19;102252.53;;;6.43;47.90
10824;BME280;39116;59.332;18.034;2023-04-04T12:01:41;102248.16;;;6.60;48.38
10824;BME280;39116;59.332;18.034;2023-04-04T12:04:04;102242.47;;;6.85;47.44
10824;BME280;39116;59.332;18.034;2023-04-04T12:06:28;102242.25;;;6.99;46.38
10824;BME280;39116;59.332;18.034;2023-04-04T12:08:52;102232.97;;;6.48;47.95
10824;BME280;39116;59.332;18.034;2023-04-04T12:11:14;102243.16;;;6.81;47.63
10824;BME280;39116;59.332;18.034;2023-04-04T12:13:41;102218.00;;;6.97;47.70
10824;BME280;39116;59.332;18.034;2023-04-04T12:16:07;102235.13;;;7.52;46.05
10824;BME280;39116;59.332;18.034;2023-04-04T12:18:29;102228.53;;;7.39;46.09